createdAt,value
2018-12-14T00:01:53.358Z,1.80
2018-12-14T00:04:22.434Z,1.80
2018-12-14T00:06:51.154Z,1.80
2018-12-14T00:09:19.880Z,1.80
2018-12-14T00:11:48.570Z,1.80
2018-12-14T00:14:17.351Z,1.80
2018-12-14T00:16:46.090Z,1.80
2018-12-14T00:19:14.796Z,1.80
2018-12-14T00:21:43.618Z,1.80
2018-12-14T00:24:12.312Z,1.80
2018-12-14T00:26:41.110Z,1.80
2018-12-14T00:29:09.802Z,1.80
2018-12-14T00:31:38.530Z,1.80
2018-12-14T00:34:07.314Z,1.70
2018-12-14T00:36:36.124Z,1.70
2018-12-14T00:39:06.580Z,1.80
2018-12-14T00:41:35.353Z,1.80
2018-12-14T00:44:04.091Z,1.80
2018-12-14T00:46:34.812Z,1.80
2018-12-14T00:49:03.571Z,1.70
2018-12-14T00:51:32.292Z,1.70
2018-12-14T00:54:01.001Z,1.70
2018-12-14T00:56:29.972Z,1.70
2018-12-14T00:58:58.654Z,1.60
2018-12-14T01:01:27.411Z,1.60
2018-12-14T01:03:56.111Z,1.60
2018-12-14T01:06:24.827Z,1.70
2018-12-14T01:08:53.613Z,1.70
2018-12-14T01:11:22.383Z,1.70
2018-12-14T01:13:51.179Z,1.80
2018-12-14T01:16:20.024Z,1.80
2018-12-14T01:18:48.787Z,1.70
2018-12-14T01:21:17.605Z,1.70
2018-12-14T01:23:46.250Z,1.70
2018-12-14T01:26:14.953Z,1.70
2018-12-14T01:28:43.694Z,1.70
2018-12-14T01:31:12.485Z,1.70
2018-12-14T01:33:41.197Z,1.70
2018-12-14T01:36:09.901Z,1.70
2018-12-14T01:38:38.561Z,1.60
2018-12-14T01:41:07.536Z,1.70
2018-12-14T01:43:36.331Z,1.70
2018-12-14T01:46:05.081Z,1.60
2018-12-14T01:48:33.791Z,1.60
2018-12-14T01:51:02.555Z,1.50
2018-12-14T01:53:31.317Z,1.60
2018-12-14T01:56:00.062Z,1.60
2018-12-14T01:58:29.923Z,1.50
2018-12-14T02:00:58.673Z,1.60
2018-12-14T02:03:27.609Z,1.60
2018-12-14T02:05:56.313Z,1.50
2018-12-14T02:08:25.084Z,1.60
2018-12-14T02:10:53.823Z,1.50
2018-12-14T02:13:22.677Z,1.50
2018-12-14T02:15:51.441Z,1.40
2018-12-14T02:18:20.235Z,1.40
2018-12-14T02:20:48.949Z,1.40
2018-12-14T02:23:17.723Z,1.50
2018-12-14T02:25:46.422Z,1.50
2018-12-14T02:28:15.101Z,1.40
2018-12-14T02:30:45.166Z,1.40
2018-12-14T02:33:14.010Z,1.40
2018-12-14T02:35:42.815Z,1.40
2018-12-14T02:38:11.553Z,1.40
2018-12-14T02:40:40.325Z,1.20
2018-12-14T02:43:09.054Z,1.40
2018-12-14T02:45:37.766Z,1.30
2018-12-14T02:48:06.548Z,1.50
2018-12-14T02:50:35.333Z,1.30
2018-12-14T02:53:04.049Z,1.30
2018-12-14T02:55:32.778Z,1.30
2018-12-14T02:58:01.554Z,1.30
2018-12-14T03:00:30.324Z,1.30
2018-12-14T03:02:59.228Z,1.40
2018-12-14T03:05:28.133Z,1.40
2018-12-14T03:07:56.907Z,1.50
2018-12-14T03:10:25.631Z,1.50
2018-12-14T03:12:54.299Z,1.40
2018-12-14T03:15:23.083Z,1.40
2018-12-14T03:17:51.795Z,1.40
2018-12-14T03:20:20.784Z,1.40
2018-12-14T03:22:49.571Z,1.30
2018-12-14T03:25:18.381Z,1.30
2018-12-14T03:27:47.147Z,1.30
2018-12-14T03:30:15.922Z,1.30
2018-12-14T03:32:44.729Z,1.30
2018-12-14T03:35:13.450Z,1.40
2018-12-14T03:37:42.218Z,1.30
2018-12-14T03:40:10.982Z,1.20
2018-12-14T03:42:39.692Z,1.30
2018-12-14T03:45:08.469Z,1.30
2018-12-14T03:47:37.183Z,1.30
2018-12-14T03:50:06.182Z,1.30
2018-12-14T03:52:34.983Z,1.20
2018-12-14T03:55:04.283Z,1.20
2018-12-14T03:57:32.999Z,1.10
2018-12-14T04:00:01.739Z,1.10
2018-12-14T04:02:30.472Z,1.20
2018-12-14T04:04:59.227Z,1.10
2018-12-14T04:07:27.942Z,1.20
2018-12-14T04:09:56.619Z,1.20
2018-12-14T04:12:25.585Z,1.30
2018-12-14T04:14:54.373Z,1.20
2018-12-14T04:17:23.111Z,1.10
2018-12-14T04:19:52.007Z,1.10
2018-12-14T04:22:20.870Z,1.20
2018-12-14T04:24:49.503Z,1.10
2018-12-14T04:27:18.277Z,1.20
2018-12-14T04:29:46.990Z,1.20
2018-12-14T04:32:16.023Z,1.20
2018-12-14T04:34:44.695Z,1.20
2018-12-14T04:37:13.429Z,1.20
2018-12-14T04:39:42.154Z,1.30
2018-12-14T04:42:10.871Z,1.30
2018-12-14T04:44:39.601Z,1.20
2018-12-14T04:47:08.675Z,1.30
2018-12-14T04:49:37.674Z,1.30
2018-12-14T04:52:10.920Z,1.30
2018-12-14T04:54:39.842Z,1.30
2018-12-14T04:57:08.588Z,1.30
2018-12-14T04:59:37.371Z,1.30
2018-12-14T05:02:06.163Z,1.30
2018-12-14T05:04:34.868Z,1.30
2018-12-14T05:07:03.658Z,1.40
2018-12-14T05:09:32.390Z,1.30
2018-12-14T05:12:01.190Z,1.20
2018-12-14T05:14:30.076Z,1.20
2018-12-14T05:16:58.747Z,1.20
2018-12-14T05:19:27.543Z,1.20
2018-12-14T05:21:56.475Z,1.30
2018-12-14T05:24:25.279Z,1.20
2018-12-14T05:26:54.890Z,1.20
2018-12-14T05:29:23.734Z,1.20
2018-12-14T05:31:52.471Z,1.20
2018-12-14T05:34:21.384Z,1.20
2018-12-14T05:36:50.108Z,1.20
2018-12-14T05:39:19.767Z,1.20
2018-12-14T05:41:48.435Z,1.20
2018-12-14T05:44:17.139Z,1.20
2018-12-14T05:46:45.883Z,1.20
2018-12-14T05:49:14.619Z,1.20
2018-12-14T05:51:43.346Z,1.20
2018-12-14T05:54:12.021Z,1.20
2018-12-14T05:56:40.823Z,1.20
2018-12-14T05:59:09.614Z,1.20
2018-12-14T06:01:38.307Z,1.20
2018-12-14T06:04:07.093Z,1.20
2018-12-14T06:06:35.919Z,1.20
2018-12-14T06:09:05.845Z,1.20
2018-12-14T06:11:34.711Z,1.20
2018-12-14T06:14:03.373Z,1.20
2018-12-14T06:16:32.206Z,1.10
2018-12-14T06:19:00.965Z,1.20
2018-12-14T06:21:29.721Z,1.30
2018-12-14T06:23:58.479Z,1.20
2018-12-14T06:26:27.338Z,1.20
2018-12-14T06:28:56.037Z,1.20
2018-12-14T06:31:24.827Z,1.20
2018-12-14T06:33:53.581Z,1.10
2018-12-14T06:36:22.399Z,1.20
2018-12-14T06:38:51.133Z,1.10
2018-12-14T06:41:19.965Z,1.20
2018-12-14T06:43:48.684Z,1.20
2018-12-14T06:46:17.426Z,1.10
2018-12-14T06:48:46.241Z,1.20
2018-12-14T06:51:15.002Z,1.20
2018-12-14T06:53:43.712Z,1.10
2018-12-14T06:56:12.480Z,1.20
2018-12-14T06:58:41.207Z,1.20
2018-12-14T07:01:09.983Z,1.10
2018-12-14T07:03:38.908Z,1.10
2018-12-14T07:06:07.631Z,1.10
2018-12-14T07:08:36.365Z,1.10
2018-12-14T07:11:05.219Z,1.10
2018-12-14T07:13:34.041Z,1.10
2018-12-14T07:16:03.166Z,1.10
2018-12-14T07:18:31.908Z,1.10
2018-12-14T07:21:00.714Z,1.00
2018-12-14T07:23:29.526Z,1.00
2018-12-14T07:25:58.281Z,1.00
2018-12-14T07:28:27.132Z,1.00
2018-12-14T07:30:55.861Z,1.00
2018-12-14T07:33:24.675Z,1.10
2018-12-14T07:35:53.435Z,1.10
2018-12-14T07:38:22.330Z,1.10
2018-12-14T07:40:51.154Z,1.00
2018-12-14T07:43:19.936Z,1.00
2018-12-14T07:45:48.726Z,1.00
2018-12-14T07:48:17.512Z,1.00
2018-12-14T07:50:46.385Z,1.10
2018-12-14T07:53:15.036Z,1.10
2018-12-14T07:55:43.834Z,1.10
2018-12-14T07:58:12.542Z,1.10
2018-12-14T08:00:41.315Z,1.00
2018-12-14T08:03:10.012Z,1.00
2018-12-14T08:05:38.768Z,1.00
2018-12-14T08:08:07.611Z,1.10
2018-12-14T08:10:36.477Z,1.10
2018-12-14T08:13:05.229Z,1.10
2018-12-14T08:15:33.959Z,1.10
2018-12-14T08:18:02.735Z,1.10
2018-12-14T08:20:31.591Z,1.00
2018-12-14T08:23:00.298Z,1.00
2018-12-14T08:25:29.143Z,1.00
2018-12-14T08:27:57.949Z,1.00
2018-12-14T08:30:27.048Z,1.00
2018-12-14T08:32:55.914Z,1.10
2018-12-14T08:35:24.660Z,1.00
2018-12-14T08:37:53.450Z,1.10
2018-12-14T08:40:22.310Z,1.00
2018-12-14T08:42:51.092Z,1.10
2018-12-14T08:45:19.788Z,1.00
2018-12-14T08:47:48.806Z,1.00
2018-12-14T08:50:17.762Z,1.10
2018-12-14T08:52:46.532Z,1.00
2018-12-14T08:55:15.336Z,1.00
2018-12-14T08:57:44.106Z,1.10
2018-12-14T09:00:12.962Z,1.10
2018-12-14T09:02:41.649Z,1.20
2018-12-14T09:05:10.401Z,1.10
2018-12-14T09:07:39.233Z,1.20
2018-12-14T09:10:08.048Z,1.10
2018-12-14T09:12:36.778Z,1.20
2018-12-14T09:15:05.585Z,1.20
2018-12-14T09:17:34.450Z,1.20
2018-12-14T09:20:03.471Z,1.20
2018-12-14T09:22:32.216Z,1.20
2018-12-14T09:25:01.028Z,1.10
2018-12-14T09:27:29.847Z,1.10
2018-12-14T09:29:58.663Z,1.10
2018-12-14T09:32:27.512Z,1.10
2018-12-14T09:34:56.404Z,1.20
2018-12-14T09:37:25.193Z,1.20
2018-12-14T09:39:54.095Z,1.20
2018-12-14T09:42:23.324Z,1.20
2018-12-14T09:44:52.055Z,1.10
2018-12-14T09:47:20.918Z,1.10
2018-12-14T09:49:49.761Z,1.10
2018-12-14T09:52:18.590Z,1.10
2018-12-14T09:54:47.294Z,1.20
2018-12-14T09:57:16.026Z,1.20
2018-12-14T09:59:44.752Z,1.20
2018-12-14T10:02:13.524Z,1.20
2018-12-14T10:04:42.764Z,1.20
2018-12-14T10:07:11.424Z,1.20
2018-12-14T10:09:40.263Z,1.30
2018-12-14T10:12:08.969Z,1.30
2018-12-14T10:14:37.846Z,1.30
2018-12-14T10:17:06.640Z,1.30
2018-12-14T10:19:35.464Z,1.30
2018-12-14T10:22:04.222Z,1.30
2018-12-14T10:24:33.012Z,1.30
2018-12-14T10:27:01.875Z,1.40
2018-12-14T10:29:30.833Z,1.40
2018-12-14T10:31:59.672Z,1.40
2018-12-14T10:34:28.320Z,1.40
2018-12-14T10:36:57.256Z,1.40
2018-12-14T10:39:25.975Z,1.40
2018-12-14T10:41:54.756Z,1.40
2018-12-14T10:44:23.711Z,1.30
2018-12-14T10:46:52.570Z,1.40
2018-12-14T10:49:22.346Z,1.40
2018-12-14T10:51:51.378Z,1.50
2018-12-14T10:54:20.868Z,1.40
2018-12-14T10:56:49.544Z,1.50
2018-12-14T10:59:18.601Z,1.50
2018-12-14T11:01:54.546Z,1.50
2018-12-14T11:04:23.955Z,1.50
2018-12-14T11:06:53.081Z,1.50
2018-12-14T11:09:21.860Z,1.50
2018-12-14T11:11:50.712Z,1.50
2018-12-14T11:14:19.498Z,1.50
2018-12-14T11:16:48.344Z,1.50
2018-12-14T11:19:17.382Z,1.60
2018-12-14T11:21:46.158Z,1.50
2018-12-14T11:24:14.981Z,1.50
2018-12-14T11:26:44.769Z,1.50
2018-12-14T11:29:13.406Z,1.50
2018-12-14T11:31:42.213Z,1.60
2018-12-14T11:34:10.944Z,1.50
2018-12-14T11:36:39.803Z,1.60
2018-12-14T11:39:08.514Z,1.50
2018-12-14T11:41:37.494Z,1.50
2018-12-14T11:44:06.321Z,1.60
2018-12-14T11:46:35.199Z,1.50
2018-12-14T11:49:04.211Z,1.50
2018-12-14T11:51:33.043Z,1.50
2018-12-14T11:54:01.809Z,1.50
2018-12-14T11:56:30.623Z,1.50
2018-12-14T11:58:59.391Z,1.50
2018-12-14T12:01:28.210Z,1.50
2018-12-14T12:03:56.899Z,1.50
2018-12-14T12:06:25.646Z,1.50
2018-12-14T12:08:54.325Z,1.50
2018-12-14T12:11:23.071Z,1.60
2018-12-14T12:13:51.737Z,1.50
2018-12-14T12:16:20.755Z,1.60
2018-12-14T12:18:49.440Z,1.60
2018-12-14T12:21:18.596Z,1.60
2018-12-14T12:23:47.301Z,1.60
2018-12-14T12:26:16.250Z,1.60
2018-12-14T12:28:44.914Z,1.60
2018-12-14T12:31:13.828Z,1.60
2018-12-14T12:33:42.663Z,1.60
2018-12-14T12:36:11.477Z,1.60
2018-12-14T12:38:40.204Z,1.60
2018-12-14T12:41:08.967Z,1.60
2018-12-14T12:43:37.757Z,1.50
2018-12-14T12:46:06.494Z,1.60
2018-12-14T12:48:35.667Z,1.60
2018-12-14T12:51:04.424Z,1.60
2018-12-14T12:53:33.277Z,1.60
2018-12-14T12:56:02.061Z,1.60
2018-12-14T12:58:30.829Z,1.60
2018-12-14T13:00:59.522Z,1.60
2018-12-14T13:03:28.378Z,1.60
2018-12-14T13:05:57.088Z,1.50
2018-12-14T13:08:25.952Z,1.50
2018-12-14T13:10:54.675Z,1.40
2018-12-14T13:13:23.452Z,1.40
2018-12-14T13:15:52.214Z,1.40
2018-12-14T13:18:21.110Z,1.30
2018-12-14T13:20:49.864Z,1.30
2018-12-14T13:23:18.635Z,1.40
2018-12-14T13:25:47.472Z,1.40
2018-12-14T13:28:16.638Z,1.40
2018-12-14T13:30:45.634Z,1.50
2018-12-14T13:33:14.720Z,1.40
2018-12-14T13:35:43.548Z,1.40
2018-12-14T13:38:12.328Z,1.40
2018-12-14T13:40:41.217Z,1.40
2018-12-14T13:43:10.079Z,1.40
2018-12-14T13:45:38.953Z,1.40
2018-12-14T13:48:07.771Z,1.40
2018-12-14T13:50:36.628Z,1.40
2018-12-14T13:53:05.362Z,1.40
2018-12-14T13:55:34.295Z,1.50
2018-12-14T13:58:03.051Z,1.50
2018-12-14T14:00:31.836Z,1.40
2018-12-14T14:03:00.556Z,1.40
2018-12-14T14:05:29.347Z,1.40
2018-12-14T14:07:58.247Z,1.40
2018-12-14T14:10:26.973Z,1.40
2018-12-14T14:12:55.780Z,1.40
2018-12-14T14:15:24.508Z,1.40
2018-12-14T14:17:53.259Z,1.40
2018-12-14T14:20:22.143Z,1.40
2018-12-14T14:22:50.863Z,1.40
2018-12-14T14:25:19.616Z,1.40
2018-12-14T14:27:48.443Z,1.40
2018-12-14T14:30:17.304Z,1.40
2018-12-14T14:32:46.107Z,1.30
2018-12-14T14:35:14.881Z,1.40
2018-12-14T14:37:43.591Z,1.40
2018-12-14T14:40:12.365Z,1.30
2018-12-14T14:42:41.138Z,1.40
2018-12-14T14:45:09.853Z,1.40
2018-12-14T14:47:38.815Z,1.50
2018-12-14T14:50:08.811Z,1.40
2018-12-14T14:52:37.625Z,1.40
2018-12-14T14:55:06.622Z,1.40
2018-12-14T14:57:35.706Z,1.40
2018-12-14T15:00:05.023Z,1.40
2018-12-14T15:02:33.870Z,1.40
2018-12-14T15:05:02.710Z,1.50
2018-12-14T15:07:31.522Z,1.40
2018-12-14T15:10:00.268Z,1.40
2018-12-14T15:12:28.992Z,1.40
2018-12-14T15:14:57.706Z,1.40
2018-12-14T15:17:26.542Z,1.40
2018-12-14T15:19:55.251Z,1.40
2018-12-14T15:22:24.167Z,1.40
2018-12-14T15:24:52.807Z,1.40
2018-12-14T15:27:21.558Z,1.40
2018-12-14T15:29:50.337Z,1.40
2018-12-14T15:32:19.417Z,1.40
2018-12-14T15:34:48.241Z,1.30
2018-12-14T15:37:17.183Z,1.30
2018-12-14T15:39:46.010Z,1.40
2018-12-14T15:42:14.735Z,1.40
2018-12-14T15:44:43.459Z,1.30
2018-12-14T15:47:12.236Z,1.40
2018-12-14T15:49:41.223Z,1.40
2018-12-14T15:52:09.944Z,1.40
2018-12-14T15:54:38.721Z,1.50
2018-12-14T15:57:07.503Z,1.40
2018-12-14T15:59:36.335Z,1.40
2018-12-14T16:02:05.168Z,1.30
2018-12-14T16:04:33.827Z,1.30
2018-12-14T16:07:02.571Z,1.30
2018-12-14T16:09:31.461Z,1.30
2018-12-14T16:12:00.342Z,1.30
2018-12-14T16:14:34.306Z,1.30
2018-12-14T16:17:00.024Z,1.40
2018-12-14T16:19:28.830Z,1.30
2018-12-14T16:21:57.780Z,1.30
2018-12-14T16:24:26.563Z,1.30
2018-12-14T16:26:55.315Z,1.30
2018-12-14T16:29:24.798Z,1.30
2018-12-14T16:31:53.579Z,1.30
2018-12-14T16:34:22.563Z,1.30
2018-12-14T16:36:51.323Z,1.30
2018-12-14T16:39:20.146Z,1.40
2018-12-14T16:41:48.963Z,1.40
2018-12-14T16:44:17.952Z,1.40
2018-12-14T16:46:46.806Z,1.40
2018-12-14T16:49:15.673Z,1.30
2018-12-14T16:51:44.524Z,1.30
2018-12-14T16:54:13.175Z,1.30
2018-12-14T16:56:42.186Z,1.30
2018-12-14T16:59:11.039Z,1.30
2018-12-14T17:01:39.813Z,1.40
2018-12-14T17:04:08.681Z,1.40
2018-12-14T17:06:37.431Z,1.40
2018-12-14T17:09:06.705Z,1.40
2018-12-14T17:11:35.533Z,1.30
2018-12-14T17:14:04.384Z,1.40
2018-12-14T17:16:33.125Z,1.40
2018-12-14T17:19:01.890Z,1.30
2018-12-14T17:21:30.584Z,1.30
2018-12-14T17:23:59.603Z,1.30
2018-12-14T17:26:28.865Z,1.30
2018-12-14T17:28:57.774Z,1.30
2018-12-14T17:31:26.704Z,1.30
2018-12-14T17:33:55.398Z,1.40
2018-12-14T17:36:24.103Z,1.30
2018-12-14T17:38:52.932Z,1.30
2018-12-14T17:41:21.954Z,1.30
2018-12-14T17:43:50.690Z,1.30
2018-12-14T17:46:19.548Z,1.30
2018-12-14T17:48:48.277Z,1.30
2018-12-14T17:51:17.597Z,1.30
2018-12-14T17:53:46.436Z,1.20
2018-12-14T17:56:15.107Z,1.30
2018-12-14T17:58:43.951Z,1.30
2018-12-14T18:01:12.806Z,1.30
2018-12-14T18:03:41.572Z,1.30
2018-12-14T18:06:10.300Z,1.30
2018-12-14T18:08:39.100Z,1.30
2018-12-14T18:11:07.776Z,1.20
2018-12-14T18:13:36.708Z,1.30
2018-12-14T18:16:05.563Z,1.20
2018-12-14T18:18:34.623Z,1.20
2018-12-14T18:21:03.449Z,1.30
2018-12-14T18:23:32.332Z,1.20
2018-12-14T18:26:01.090Z,1.20
2018-12-14T18:28:29.767Z,1.20
2018-12-14T18:30:58.509Z,1.20
2018-12-14T18:33:27.295Z,1.20
2018-12-14T18:35:56.225Z,1.20
2018-12-14T18:38:24.975Z,1.20
2018-12-14T18:40:53.809Z,1.20
2018-12-14T18:43:22.604Z,1.20
2018-12-14T18:45:53.336Z,1.20
2018-12-14T18:48:22.131Z,1.20
2018-12-14T18:50:50.914Z,1.20
2018-12-14T18:53:19.586Z,1.20
2018-12-14T18:55:48.337Z,1.20
2018-12-14T18:58:17.215Z,1.20
2018-12-14T19:00:46.252Z,1.20
2018-12-14T19:03:15.264Z,1.20
2018-12-14T19:05:44.174Z,1.20
2018-12-14T19:08:13.272Z,1.20
2018-12-14T19:10:42.085Z,1.20
2018-12-14T19:13:10.774Z,1.20
2018-12-14T19:15:39.718Z,1.30
2018-12-14T19:18:08.390Z,1.30
2018-12-14T19:20:37.278Z,1.30
2018-12-14T19:23:06.178Z,1.30
2018-12-14T19:25:34.854Z,1.20
2018-12-14T19:28:03.675Z,1.20
2018-12-14T19:30:32.388Z,1.20
2018-12-14T19:33:01.209Z,1.20
2018-12-14T19:35:30.019Z,1.20
2018-12-14T19:37:58.720Z,1.20
2018-12-14T19:40:27.546Z,1.20
2018-12-14T19:42:56.361Z,1.20
2018-12-14T19:45:25.050Z,1.20
2018-12-14T19:47:53.851Z,1.20
2018-12-14T19:50:22.811Z,1.10
2018-12-14T19:52:51.500Z,1.20
2018-12-14T19:55:20.185Z,1.20
2018-12-14T19:57:49.180Z,1.20
2018-12-14T20:00:18.194Z,1.10
2018-12-14T20:02:46.955Z,1.20
2018-12-14T20:05:15.872Z,1.20
2018-12-14T20:07:44.692Z,1.20
2018-12-14T20:10:13.569Z,1.20
2018-12-14T20:12:42.383Z,1.20
2018-12-14T20:15:11.254Z,1.20
2018-12-14T20:17:40.099Z,1.20
2018-12-14T20:20:08.909Z,1.20
2018-12-14T20:22:37.660Z,1.10
2018-12-14T20:25:06.620Z,1.10
2018-12-14T20:27:35.375Z,1.10
2018-12-14T20:30:05.783Z,1.10
2018-12-14T20:32:34.599Z,1.10
2018-12-14T20:35:03.561Z,1.10
2018-12-14T20:37:32.323Z,1.10
2018-12-14T20:40:01.064Z,1.00
2018-12-14T20:42:29.875Z,1.00
2018-12-14T20:44:58.638Z,1.00
2018-12-14T20:47:27.363Z,1.00
2018-12-14T20:49:56.209Z,1.00
2018-12-14T20:52:24.961Z,1.00
2018-12-14T20:54:53.700Z,1.00
2018-12-14T20:57:22.734Z,1.00
2018-12-14T20:59:51.552Z,1.00
2018-12-14T21:02:20.302Z,1.00
2018-12-14T21:04:48.990Z,0.90
2018-12-14T21:07:17.877Z,1.00
2018-12-14T21:09:46.610Z,1.00
2018-12-14T21:12:15.302Z,1.00
2018-12-14T21:14:44.034Z,1.00
2018-12-14T21:17:12.824Z,0.90
2018-12-14T21:19:41.643Z,1.00
2018-12-14T21:22:12.518Z,1.00
2018-12-14T21:24:41.279Z,1.00
2018-12-14T21:27:10.946Z,0.90
2018-12-14T21:29:39.754Z,0.90
2018-12-14T21:32:08.560Z,0.90
2018-12-14T21:34:37.350Z,0.90
2018-12-14T21:37:06.157Z,0.90
2018-12-14T21:39:34.882Z,0.90
2018-12-14T21:42:03.676Z,0.90
2018-12-14T21:44:32.474Z,0.90
2018-12-14T21:47:01.140Z,0.90
2018-12-14T21:49:30.025Z,0.90
2018-12-14T21:51:58.793Z,0.90
2018-12-14T21:54:27.583Z,0.90
2018-12-14T21:56:56.590Z,0.90
2018-12-14T21:59:25.646Z,0.90
2018-12-14T22:01:54.462Z,0.90
2018-12-14T22:04:23.149Z,0.80
2018-12-14T22:06:51.988Z,0.90
2018-12-14T22:09:20.655Z,0.80
2018-12-14T22:11:49.443Z,0.90
2018-12-14T22:14:18.363Z,0.90
2018-12-14T22:16:47.200Z,0.90
2018-12-14T22:19:15.967Z,0.80
2018-12-14T22:21:44.850Z,0.80
2018-12-14T22:24:13.644Z,0.80
2018-12-14T22:26:42.631Z,0.90
2018-12-14T22:29:11.328Z,0.90
2018-12-14T22:31:40.121Z,0.90
2018-12-14T22:34:08.839Z,0.80
2018-12-14T22:36:37.692Z,0.80
2018-12-14T22:39:08.135Z,0.80
2018-12-14T22:41:36.944Z,0.80
2018-12-14T22:44:05.612Z,0.80
2018-12-14T22:46:34.349Z,0.80
2018-12-14T22:49:03.072Z,0.80
2018-12-14T22:51:31.799Z,0.80
2018-12-14T22:54:00.458Z,0.80
2018-12-14T22:56:29.255Z,0.90
2018-12-14T22:58:57.936Z,0.80
2018-12-14T23:01:26.749Z,0.80
2018-12-14T23:03:55.439Z,0.80
2018-12-14T23:06:24.291Z,0.90
2018-12-14T23:08:52.962Z,0.80
2018-12-14T23:11:21.831Z,0.80
2018-12-14T23:13:50.542Z,0.80
2018-12-14T23:16:19.350Z,0.70
2018-12-14T23:18:48.076Z,0.80
2018-12-14T23:21:16.866Z,0.80
2018-12-14T23:23:45.783Z,0.80
2018-12-14T23:26:14.542Z,0.80
2018-12-14T23:28:43.254Z,0.80
2018-12-14T23:31:12.011Z,0.90
2018-12-14T23:33:40.702Z,0.70
2018-12-14T23:36:09.414Z,0.70
2018-12-14T23:38:38.206Z,0.70
2018-12-14T23:41:06.932Z,0.70
2018-12-14T23:43:35.657Z,0.80
2018-12-14T23:46:04.419Z,0.80
2018-12-14T23:48:33.327Z,0.80
2018-12-14T23:51:02.186Z,0.80
2018-12-14T23:53:30.941Z,0.80
2018-12-14T23:55:59.634Z,0.70
2018-12-14T23:58:28.361Z,0.70
